sensor_id;sensor_type;location;lat;lon;timestamp;temperature;humidity
6822;DHT22;3449;48.728;8.968;2022-08-19T00:01:50;19.70;99.90
6822;DHT22;3449;48.728;8.968;2022-08-19T00:04:19;19.70;99.90
6822;DHT22;3449;48.728;8.968;2022-08-19T00:06:47;19.60;99.90
6822;DHT22;3449;48.728;8.968;2022-08-19T00:09:17;19.60;99.90
6822;DHT22;3449;48.728;8.968;2022-08-19T00:11:44;19.60;99.90
6822;DHT22;3449;48.728;8.968;2022-08-19T00:14:16;19.60;99.90
6822;DHT22;3449;48.728;8.968;2022-08-19T00:16:45;19.60;99.90
6822;DHT22;3449;48.728;8.968;2022-08-19T00:19:13;19.60;99.90
6822;DHT22;3449;48.728;8.968;2022-08-19T00:21:40;19.50;99.90
6822;DHT22;3449;48.728;8.968;2022-08-19T00:24:08;19.50;99.90
6822;DHT22;3449;48.728;8.968;2022-08-19T00:26:35;19.50;99.90
6822;DHT22;3449;48.728;8.968;2022-08-19T00:29:03;19.50;99.90
6822;DHT22;3449;48.728;8.968;2022-08-19T00:31:32;19.40;99.90
6822;DHT22;3449;48.728;8.968;2022-08-19T00:33:59;19.40;99.90
6822;DHT22;3449;48.728;8.968;2022-08-19T00:36:26;19.50;99.90
6822;DHT22;3449;48.728;8.968;2022-08-19T00:38:54;19.50;99.90
6822;DHT22;3449;48.728;8.968;2022-08-19T00:41:22;19.50;99.90
6822;DHT22;3449;48.728;8.968;2022-08-19T00:44:02;19.40;99.90
6822;DHT22;3449;48.728;8.968;2022-08-19T00:46:31;19.40;99.90
6822;DHT22;3449;48.728;8.968;2022-08-19T00:49:02;19.40;99.90
6822;DHT22;3449;48.728;8.968;2022-08-19T00:51:33;19.40;99.90
6822;DHT22;3449;48.728;8.968;2022-08-19T00:54:02;19.40;99.90
6822;DHT22;3449;48.728;8.968;2022-08-19T00:56:30;19.50;99.90
6822;DHT22;3449;48.728;8.968;2022-08-19T00:58:58;19.40;99.90
6822;DHT22;3449;48.728;8.968;2022-08-19T01:01:27;19.40;99.90
6822;DHT22;3449;48.728;8.968;2022-08-19T01:03:55;19.40;99.90
6822;DHT22;3449;48.728;8.968;2022-08-19T01:06:22;19.40;99.90
6822;DHT22;3449;48.728;8.968;2022-08-19T01:08:49;19.40;99.90
6822;DHT22;3449;48.728;8.968;2022-08-19T01:11:16;19.40;99.90
6822;DHT22;3449;48.728;8.968;2022-08-19T01:13:44;19.40;99.90
6822;DHT22;3449;48.728;8.968;2022-08-19T01:16:12;19.40;99.90
6822;DHT22;3449;48.728;8.968;2022-08-19T01:18:41;19.40;99.90
6822;DHT22;3449;48.728;8.968;2022-08-19T01:21:17;19.40;99.90
6822;DHT22;3449;48.728;8.968;2022-08-19T01:23:46;19.40;99.90
6822;DHT22;3449;48.728;8.968;2022-08-19T01:26:15;19.40;99.90
6822;DHT22;3449;48.728;8.968;2022-08-19T01:28:45;19.30;99.90
6822;DHT22;3449;48.728;8.968;2022-08-19T01:31:14;19.30;99.90
6822;DHT22;3449;48.728;8.968;2022-08-19T01:33:41;19.30;99.90
6822;DHT22;3449;48.728;8.968;2022-08-19T01:36:11;19.30;99.90
6822;DHT22;3449;48.728;8.968;2022-08-19T01:38:41;19.30;99.90
6822;DHT22;3449;48.728;8.968;2022-08-19T01:41:11;19.20;99.90
6822;DHT22;3449;48.728;8.968;2022-08-19T01:43:38;19.20;99.90
6822;DHT22;3449;48.728;8.968;2022-08-19T01:46:05;19.20;99.90
6822;DHT22;3449;48.728;8.968;2022-08-19T01:48:36;19.20;99.90
6822;DHT22;3449;48.728;8.968;2022-08-19T01:51:03;19.20;99.90
6822;DHT22;3449;48.728;8.968;2022-08-19T01:53:30;19.20;99.90
6822;DHT22;3449;48.728;8.968;2022-08-19T01:55:58;19.20;99.90
6822;DHT22;3449;48.728;8.968;2022-08-19T01:58:29;19.20;99.90
6822;DHT22;3449;48.728;8.968;2022-08-19T02:00:57;19.10;99.90
6822;DHT22;3449;48.728;8.968;2022-08-19T02:03:24;19.10;99.90
6822;DHT22;3449;48.728;8.968;2022-08-19T02:05:55;19.00;99.90
6822;DHT22;3449;48.728;8.968;2022-08-19T02:08:22;19.00;99.90
6822;DHT22;3449;48.728;8.968;2022-08-19T02:10:49;19.00;99.90
6822;DHT22;3449;48.728;8.968;2022-08-19T02:13:16;19.00;99.90
6822;DHT22;3449;48.728;8.968;2022-08-19T02:15:44;19.00;99.90
6822;DHT22;3449;48.728;8.968;2022-08-19T02:18:12;18.90;99.90
6822;DHT22;3449;48.728;8.968;2022-08-19T02:20:41;18.90;99.90
6822;DHT22;3449;48.728;8.968;2022-08-19T02:23:08;18.90;99.90
6822;DHT22;3449;48.728;8.968;2022-08-19T02:25:36;18.90;99.90
6822;DHT22;3449;48.728;8.968;2022-08-19T02:28:03;18.90;99.90
6822;DHT22;3449;48.728;8.968;2022-08-19T02:30:30;18.80;99.90
6822;DHT22;3449;48.728;8.968;2022-08-19T02:32:59;18.80;99.90
6822;DHT22;3449;48.728;8.968;2022-08-19T02:35:26;18.80;99.90
6822;DHT22;3449;48.728;8.968;2022-08-19T02:37:53;18.80;99.90
6822;DHT22;3449;48.728;8.968;2022-08-19T02:40:37;18.80;99.90
6822;DHT22;3449;48.728;8.968;2022-08-19T02:43:06;18.80;99.90
6822;DHT22;3449;48.728;8.968;2022-08-19T02:45:34;18.80;99.90
6822;DHT22;3449;48.728;8.968;2022-08-19T02:48:04;18.80;99.90
6822;DHT22;3449;48.728;8.968;2022-08-19T02:50:31;18.80;99.90
6822;DHT22;3449;48.728;8.968;2022-08-19T02:52:58;18.80;99.90
6822;DHT22;3449;48.728;8.968;2022-08-19T02:55:25;18.70;99.90
6822;DHT22;3449;48.728;8.968;2022-08-19T02:57:52;18.70;99.90
6822;DHT22;3449;48.728;8.968;2022-08-19T03:00:19;18.70;99.90
6822;DHT22;3449;48.728;8.968;2022-08-19T03:02:46;18.70;99.90
6822;DHT22;3449;48.728;8.968;2022-08-19T03:05:15;18.70;99.90
6822;DHT22;3449;48.728;8.968;2022-08-19T03:07:42;18.70;99.90
6822;DHT22;3449;48.728;8.968;2022-08-19T03:10:09;18.60;99.90
6822;DHT22;3449;48.728;8.968;2022-08-19T03:12:37;18.60;99.90
6822;DHT22;3449;48.728;8.968;2022-08-19T03:15:05;18.60;99.90
6822;DHT22;3449;48.728;8.968;2022-08-19T03:17:33;18.60;99.90
6822;DHT22;3449;48.728;8.968;2022-08-19T03:20:00;18.60;99.90
6822;DHT22;3449;48.728;8.968;2022-08-19T03:22:29;18.60;99.90
6822;DHT22;3449;48.728;8.968;2022-08-19T03:24:56;18.60;99.90
6822;DHT22;3449;48.728;8.968;2022-08-19T03:27:24;18.50;99.90
6822;DHT22;3449;48.728;8.968;2022-08-19T03:29:52;18.50;99.90
6822;DHT22;3449;48.728;8.968;2022-08-19T03:32:19;18.50;99.90
6822;DHT22;3449;48.728;8.968;2022-08-19T03:34:47;18.50;99.90
6822;DHT22;3449;48.728;8.968;2022-08-19T03:37:14;18.50;99.90
6822;DHT22;3449;48.728;8.968;2022-08-19T03:39:43;18.40;99.90
6822;DHT22;3449;48.728;8.968;2022-08-19T03:42:10;18.40;99.90
6822;DHT22;3449;48.728;8.968;2022-08-19T03:44:38;18.40;99.90
6822;DHT22;3449;48.728;8.968;2022-08-19T03:47:05;18.40;99.90
6822;DHT22;3449;48.728;8.968;2022-08-19T03:49:32;18.40;99.90
6822;DHT22;3449;48.728;8.968;2022-08-19T03:52:01;18.30;99.90
6822;DHT22;3449;48.728;8.968;2022-08-19T03:54:30;18.30;99.90
6822;DHT22;3449;48.728;8.968;2022-08-19T03:56:59;18.30;99.90
6822;DHT22;3449;48.728;8.968;2022-08-19T03:59:28;18.30;99.90
6822;DHT22;3449;48.728;8.968;2022-08-19T04:01:57;18.20;99.90
6822;DHT22;3449;48.728;8.968;2022-08-19T04:04:25;18.20;99.90
6822;DHT22;3449;48.728;8.968;2022-08-19T04:06:52;18.20;99.90
6822;DHT22;3449;48.728;8.968;2022-08-19T04:09:19;18.20;99.90
6822;DHT22;3449;48.728;8.968;2022-08-19T04:11:49;18.20;99.90
6822;DHT22;3449;48.728;8.968;2022-08-19T04:14:21;18.20;99.90
6822;DHT22;3449;48.728;8.968;2022-08-19T04:16:49;18.20;99.90
6822;DHT22;3449;48.728;8.968;2022-08-19T04:19:18;18.20;99.90
6822;DHT22;3449;48.728;8.968;2022-08-19T04:21:48;18.20;99.90
6822;DHT22;3449;48.728;8.968;2022-08-19T04:24:15;18.20;99.90
6822;DHT22;3449;48.728;8.968;2022-08-19T04:26:42;18.10;99.90
6822;DHT22;3449;48.728;8.968;2022-08-19T04:29:11;18.10;99.90
6822;DHT22;3449;48.728;8.968;2022-08-19T04:31:41;18.10;99.90
6822;DHT22;3449;48.728;8.968;2022-08-19T04:34:11;18.10;99.90
6822;DHT22;3449;48.728;8.968;2022-08-19T04:36:40;18.10;99.90
6822;DHT22;3449;48.728;8.968;2022-08-19T04:39:10;18.10;99.90
6822;DHT22;3449;48.728;8.968;2022-08-19T04:41:37;18.10;99.90
6822;DHT22;3449;48.728;8.968;2022-08-19T04:44:22;18.10;99.90
6822;DHT22;3449;48.728;8.968;2022-08-19T04:46:51;18.20;99.90
6822;DHT22;3449;48.728;8.968;2022-08-19T04:49:20;18.10;99.90
6822;DHT22;3449;48.728;8.968;2022-08-19T04:51:48;18.20;99.90
6822;DHT22;3449;48.728;8.968;2022-08-19T04:54:15;18.20;99.90
6822;DHT22;3449;48.728;8.968;2022-08-19T04:56:42;18.20;99.90
6822;DHT22;3449;48.728;8.968;2022-08-19T04:59:10;18.20;99.90
6822;DHT22;3449;48.728;8.968;2022-08-19T05:01:37;18.20;99.90
6822;DHT22;3449;48.728;8.968;2022-08-19T05:04:06;18.20;99.90
6822;DHT22;3449;48.728;8.968;2022-08-19T05:06:35;18.20;99.90
6822;DHT22;3449;48.728;8.968;2022-08-19T05:09:04;18.20;99.90
6822;DHT22;3449;48.728;8.968;2022-08-19T05:11:33;18.20;99.90
6822;DHT22;3449;48.728;8.968;2022-08-19T05:14:00;18.20;99.90
6822;DHT22;3449;48.728;8.968;2022-08-19T05:16:28;18.30;99.90
6822;DHT22;3449;48.728;8.968;2022-08-19T05:18:55;18.30;99.90
6822;DHT22;3449;48.728;8.968;2022-08-19T05:21:42;18.30;99.90
6822;DHT22;3449;48.728;8.968;2022-08-19T05:24:31;18.30;99.90
6822;DHT22;3449;48.728;8.968;2022-08-19T05:27:00;18.30;99.90
6822;DHT22;3449;48.728;8.968;2022-08-19T05:29:28;18.30;99.90
6822;DHT22;3449;48.728;8.968;2022-08-19T05:31:57;18.40;99.90
6822;DHT22;3449;48.728;8.968;2022-08-19T05:34:25;18.40;99.90
6822;DHT22;3449;48.728;8.968;2022-08-19T05:36:55;18.40;99.90
6822;DHT22;3449;48.728;8.968;2022-08-19T05:39:26;18.40;99.90
6822;DHT22;3449;48.728;8.968;2022-08-19T05:41:56;18.40;99.90
6822;DHT22;3449;48.728;8.968;2022-08-19T05:44:25;18.40;99.90
6822;DHT22;3449;48.728;8.968;2022-08-19T05:46:53;18.40;99.90
6822;DHT22;3449;48.728;8.968;2022-08-19T05:49:22;18.40;99.90
6822;DHT22;3449;48.728;8.968;2022-08-19T05:51:49;18.40;99.90
6822;DHT22;3449;48.728;8.968;2022-08-19T05:54:18;18.40;99.90
6822;DHT22;3449;48.728;8.968;2022-08-19T05:56:45;18.50;99.90
6822;DHT22;3449;48.728;8.968;2022-08-19T05:59:14;18.40;99.90
6822;DHT22;3449;48.728;8.968;2022-08-19T06:01:44;18.50;99.90
6822;DHT22;3449;48.728;8.968;2022-08-19T06:04:12;18.50;99.90
6822;DHT22;3449;48.728;8.968;2022-08-19T06:06:40;18.50;99.90
6822;DHT22;3449;48.728;8.968;2022-08-19T06:09:08;18.50;99.90
6822;DHT22;3449;48.728;8.968;2022-08-19T06:11:40;18.50;99.90
6822;DHT22;3449;48.728;8.968;2022-08-19T06:14:11;18.50;99.90
6822;DHT22;3449;48.728;8.968;2022-08-19T06:16:39;18.50;99.90
6822;DHT22;3449;48.728;8.968;2022-08-19T06:19:11;18.50;99.90
6822;DHT22;3449;48.728;8.968;2022-08-19T06:21:39;18.50;99.90
6822;DHT22;3449;48.728;8.968;2022-08-19T06:24:10;18.50;99.90
6822;DHT22;3449;48.728;8.968;2022-08-19T06:26:41;18.50;99.90
6822;DHT22;3449;48.728;8.968;2022-08-19T06:29:10;18.50;99.90
6822;DHT22;3449;48.728;8.968;2022-08-19T06:31:41;18.50;99.90
6822;DHT22;3449;48.728;8.968;2022-08-19T06:34:09;18.60;99.90
6822;DHT22;3449;48.728;8.968;2022-08-19T06:36:38;18.60;99.90
6822;DHT22;3449;48.728;8.968;2022-08-19T06:39:07;18.60;99.90
6822;DHT22;3449;48.728;8.968;2022-08-19T06:41:39;18.60;99.90
6822;DHT22;3449;48.728;8.968;2022-08-19T06:44:07;18.60;99.90
6822;DHT22;3449;48.728;8.968;2022-08-19T06:46:35;18.70;99.90
6822;DHT22;3449;48.728;8.968;2022-08-19T06:49:02;18.70;99.90
6822;DHT22;3449;48.728;8.968;2022-08-19T06:51:30;18.70;99.90
6822;DHT22;3449;48.728;8.968;2022-08-19T06:53:59;18.70;99.90
6822;DHT22;3449;48.728;8.968;2022-08-19T06:56:29;18.70;99.90
6822;DHT22;3449;48.728;8.968;2022-08-19T06:59:00;18.80;99.90
6822;DHT22;3449;48.728;8.968;2022-08-19T07:01:28;18.90;99.90
6822;DHT22;3449;48.728;8.968;2022-08-19T07:03:54;18.90;99.90
6822;DHT22;3449;48.728;8.968;2022-08-19T07:06:21;19.00;99.90
6822;DHT22;3449;48.728;8.968;2022-08-19T07:08:48;19.10;99.90
6822;DHT22;3449;48.728;8.968;2022-08-19T07:11:18;19.10;99.90
6822;DHT22;3449;48.728;8.968;2022-08-19T07:13:46;19.20;99.90
6822;DHT22;3449;48.728;8.968;2022-08-19T07:16:17;19.20;99.90
6822;DHT22;3449;48.728;8.968;2022-08-19T07:18:45;19.20;99.90
6822;DHT22;3449;48.728;8.968;2022-08-19T07:21:15;19.20;99.90
6822;DHT22;3449;48.728;8.968;2022-08-19T07:23:43;19.20;99.90
6822;DHT22;3449;48.728;8.968;2022-08-19T07:26:13;19.30;99.90
6822;DHT22;3449;48.728;8.968;2022-08-19T07:28:40;19.30;99.90
6822;DHT22;3449;48.728;8.968;2022-08-19T07:31:10;19.30;99.90
6822;DHT22;3449;48.728;8.968;2022-08-19T07:33:40;19.30;99.90
6822;DHT22;3449;48.728;8.968;2022-08-19T07:36:10;19.30;99.90
6822;DHT22;3449;48.728;8.968;2022-08-19T07:38:40;19.30;99.90
6822;DHT22;3449;48.728;8.968;2022-08-19T07:41:10;19.30;99.90
6822;DHT22;3449;48.728;8.968;2022-08-19T07:43:37;19.30;99.90
6822;DHT22;3449;48.728;8.968;2022-08-19T07:46:05;19.30;99.90
6822;DHT22;3449;48.728;8.968;2022-08-19T07:48:33;19.40;99.90
6822;DHT22;3449;48.728;8.968;2022-08-19T07:51:04;19.50;99.90
6822;DHT22;3449;48.728;8.968;2022-08-19T07:53:31;19.50;99.90
6822;DHT22;3449;48.728;8.968;2022-08-19T07:55:59;19.60;99.90
6822;DHT22;3449;48.728;8.968;2022-08-19T07:58:30;19.70;99.90
6822;DHT22;3449;48.728;8.968;2022-08-19T08:00:57;19.70;99.90
6822;DHT22;3449;48.728;8.968;2022-08-19T08:03:25;19.70;99.90
6822;DHT22;3449;48.728;8.968;2022-08-19T08:06:14;19.70;99.90
6822;DHT22;3449;48.728;8.968;2022-08-19T08:08:59;19.80;99.90
6822;DHT22;3449;48.728;8.968;2022-08-19T08:11:43;19.90;99.90
6822;DHT22;3449;48.728;8.968;2022-08-19T08:14:15;19.90;99.90
6822;DHT22;3449;48.728;8.968;2022-08-19T08:16:42;19.90;99.90
6822;DHT22;3449;48.728;8.968;2022-08-19T08:19:11;19.80;99.90
6822;DHT22;3449;48.728;8.968;2022-08-19T08:21:42;19.70;99.90
6822;DHT22;3449;48.728;8.968;2022-08-19T08:24:09;19.60;99.90
6822;DHT22;3449;48.728;8.968;2022-08-19T08:26:37;19.60;99.90
6822;DHT22;3449;48.728;8.968;2022-08-19T08:29:05;19.60;99.90
6822;DHT22;3449;48.728;8.968;2022-08-19T08:31:32;19.60;99.90
6822;DHT22;3449;48.728;8.968;2022-08-19T08:34:00;19.60;99.90
6822;DHT22;3449;48.728;8.968;2022-08-19T08:36:27;19.50;99.90
6822;DHT22;3449;48.728;8.968;2022-08-19T08:38:55;19.50;99.90
6822;DHT22;3449;48.728;8.968;2022-08-19T08:41:28;19.40;99.90
6822;DHT22;3449;48.728;8.968;2022-08-19T08:43:58;19.40;99.90
6822;DHT22;3449;48.728;8.968;2022-08-19T08:46:33;19.40;99.90
6822;DHT22;3449;48.728;8.968;2022-08-19T08:49:11;19.40;99.90
6822;DHT22;3449;48.728;8.968;2022-08-19T08:51:50;19.40;99.90
6822;DHT22;3449;48.728;8.968;2022-08-19T08:54:30;19.40;99.90
6822;DHT22;3449;48.728;8.968;2022-08-19T08:56:57;19.50;99.90
6822;DHT22;3449;48.728;8.968;2022-08-19T08:59:28;19.60;99.90
6822;DHT22;3449;48.728;8.968;2022-08-19T09:01:56;19.60;99.90
6822;DHT22;3449;48.728;8.968;2022-08-19T09:04:24;19.70;99.90
6822;DHT22;3449;48.728;8.968;2022-08-19T09:06:57;19.80;99.90
6822;DHT22;3449;48.728;8.968;2022-08-19T09:09:32;19.90;99.90
6822;DHT22;3449;48.728;8.968;2022-08-19T09:12:06;20.00;99.90
6822;DHT22;3449;48.728;8.968;2022-08-19T09:14:43;20.20;99.90
6822;DHT22;3449;48.728;8.968;2022-08-19T09:17:13;20.30;99.90
6822;DHT22;3449;48.728;8.968;2022-08-19T09:19:52;20.30;99.90
6822;DHT22;3449;48.728;8.968;2022-08-19T09:22:19;20.30;99.90
6822;DHT22;3449;48.728;8.968;2022-08-19T09:24:49;20.40;99.90
6822;DHT22;3449;48.728;8.968;2022-08-19T09:27:18;20.40;99.90
6822;DHT22;3449;48.728;8.968;2022-08-19T09:29:46;20.50;99.90
6822;DHT22;3449;48.728;8.968;2022-08-19T09:32:14;20.50;99.90
6822;DHT22;3449;48.728;8.968;2022-08-19T09:34:41;20.50;99.90
6822;DHT22;3449;48.728;8.968;2022-08-19T09:37:09;20.60;99.90
6822;DHT22;3449;48.728;8.968;2022-08-19T09:39:37;20.50;99.90
6822;DHT22;3449;48.728;8.968;2022-08-19T09:42:05;20.50;99.90
6822;DHT22;3449;48.728;8.968;2022-08-19T09:44:37;20.40;99.90
6822;DHT22;3449;48.728;8.968;2022-08-19T09:47:04;20.40;99.90
6822;DHT22;3449;48.728;8.968;2022-08-19T09:49:31;20.40;99.90
6822;DHT22;3449;48.728;8.968;2022-08-19T09:51:58;20.40;99.90
6822;DHT22;3449;48.728;8.968;2022-08-19T09:54:25;20.40;99.90
6822;DHT22;3449;48.728;8.968;2022-08-19T09:56:53;20.50;99.90
6822;DHT22;3449;48.728;8.968;2022-08-19T09:59:22;20.50;99.90
6822;DHT22;3449;48.728;8.968;2022-08-19T10:01:49;20.60;99.90
6822;DHT22;3449;48.728;8.968;2022-08-19T10:04:17;20.50;99.90
6822;DHT22;3449;48.728;8.968;2022-08-19T10:06:45;20.50;99.90
6822;DHT22;3449;48.728;8.968;2022-08-19T10:09:14;20.60;99.90
6822;DHT22;3449;48.728;8.968;2022-08-19T10:11:43;20.60;99.90
6822;DHT22;3449;48.728;8.968;2022-08-19T10:14:14;20.60;99.90
6822;DHT22;3449;48.728;8.968;2022-08-19T10:16:43;20.70;99.90
6822;DHT22;3449;48.728;8.968;2022-08-19T10:19:10;20.80;99.90
6822;DHT22;3449;48.728;8.968;2022-08-19T10:21:37;20.80;99.90
6822;DHT22;3449;48.728;8.968;2022-08-19T10:24:05;20.80;99.90
6822;DHT22;3449;48.728;8.968;2022-08-19T10:26:34;20.90;99.90
6822;DHT22;3449;48.728;8.968;2022-08-19T10:29:03;20.90;99.90
6822;DHT22;3449;48.728;8.968;2022-08-19T10:31:32;21.00;99.90
6822;DHT22;3449;48.728;8.968;2022-08-19T10:34:01;20.90;99.90
6822;DHT22;3449;48.728;8.968;2022-08-19T10:36:30;20.90;99.90
6822;DHT22;3449;48.728;8.968;2022-08-19T10:39:00;20.90;99.90
6822;DHT22;3449;48.728;8.968;2022-08-19T10:41:31;20.90;99.90
6822;DHT22;3449;48.728;8.968;2022-08-19T10:44:00;20.90;99.90
6822;DHT22;3449;48.728;8.968;2022-08-19T10:46:28;21.00;99.90
6822;DHT22;3449;48.728;8.968;2022-08-19T10:48:59;21.10;99.90
6822;DHT22;3449;48.728;8.968;2022-08-19T10:51:27;21.20;99.90
6822;DHT22;3449;48.728;8.968;2022-08-19T10:54:12;21.20;99.90
6822;DHT22;3449;48.728;8.968;2022-08-19T10:56:39;21.40;99.90
6822;DHT22;3449;48.728;8.968;2022-08-19T10:59:19;21.50;99.90
6822;DHT22;3449;48.728;8.968;2022-08-19T11:01:48;21.60;99.90
6822;DHT22;3449;48.728;8.968;2022-08-19T11:04:15;21.70;99.90
6822;DHT22;3449;48.728;8.968;2022-08-19T11:06:44;21.90;99.90
6822;DHT22;3449;48.728;8.968;2022-08-19T11:09:13;22.10;99.90
6822;DHT22;3449;48.728;8.968;2022-08-19T11:11:40;22.20;99.90
6822;DHT22;3449;48.728;8.968;2022-08-19T11:14:09;22.40;99.90
6822;DHT22;3449;48.728;8.968;2022-08-19T11:16:37;22.40;99.90
6822;DHT22;3449;48.728;8.968;2022-08-19T11:19:06;22.40;99.90
6822;DHT22;3449;48.728;8.968;2022-08-19T11:21:35;22.30;99.90
6822;DHT22;3449;48.728;8.968;2022-08-19T11:24:06;22.40;99.90
6822;DHT22;3449;48.728;8.968;2022-08-19T11:26:35;22.40;99.90
6822;DHT22;3449;48.728;8.968;2022-08-19T11:29:04;22.30;99.90
6822;DHT22;3449;48.728;8.968;2022-08-19T11:31:33;22.20;99.90
6822;DHT22;3449;48.728;8.968;2022-08-19T11:34:03;22.10;99.90
6822;DHT22;3449;48.728;8.968;2022-08-19T11:36:31;22.10;99.90
6822;DHT22;3449;48.728;8.968;2022-08-19T11:38:59;22.10;99.90
6822;DHT22;3449;48.728;8.968;2022-08-19T11:41:27;22.10;99.90
6822;DHT22;3449;48.728;8.968;2022-08-19T11:43:54;22.00;99.90
6822;DHT22;3449;48.728;8.968;2022-08-19T11:46:23;22.00;99.90
6822;DHT22;3449;48.728;8.968;2022-08-19T11:48:51;22.00;99.90
6822;DHT22;3449;48.728;8.968;2022-08-19T11:51:22;22.00;99.90
6822;DHT22;3449;48.728;8.968;2022-08-19T11:53:50;22.10;99.90
6822;DHT22;3449;48.728;8.968;2022-08-19T11:56:18;22.20;99.90
6822;DHT22;3449;48.728;8.968;2022-08-19T11:58:47;22.10;99.90
6822;DHT22;3449;48.728;8.968;2022-08-19T12:01:15;22.10;99.90
6822;DHT22;3449;48.728;8.968;2022-08-19T12:03:43;22.10;99.90
6822;DHT22;3449;48.728;8.968;2022-08-19T12:06:14;22.10;99.90
6822;DHT22;3449;48.728;8.968;2022-08-19T12:08:41;22.20;99.90
6822;DHT22;3449;48.728;8.968;2022-08-19T12:11:09;22.20;99.90
6822;DHT22;3449;48.728;8.968;2022-08-19T12:13:36;22.20;99.90
6822;DHT22;3449;48.728;8.968;2022-08-19T12:16:09;22.30;99.90
6822;DHT22;3449;48.728;8.968;2022-08-19T12:18:37;22.40;99.90
6822;DHT22;3449;48.728;8.968;2022-08-19T12:21:04;22.70;99.90
6822;DHT22;3449;48.728;8.968;2022-08-19T12:23:31;22.90;99.90
6822;DHT22;3449;48.728;8.968;2022-08-19T12:25:58;23.20;99.90
6822;DHT22;3449;48.728;8.968;2022-08-19T12:28:25;23.50;99.90
6822;DHT22;3449;48.728;8.968;2022-08-19T12:30:52;23.70;99.90
6822;DHT22;3449;48.728;8.968;2022-08-19T12:33:21;23.70;99.90
6822;DHT22;3449;48.728;8.968;2022-08-19T12:35:51;23.70;99.90
6822;DHT22;3449;48.728;8.968;2022-08-19T12:38:18;23.80;99.90
6822;DHT22;3449;48.728;8.968;2022-08-19T12:40:46;23.80;99.90
6822;DHT22;3449;48.728;8.968;2022-08-19T12:43:13;23.80;99.90
6822;DHT22;3449;48.728;8.968;2022-08-19T12:45:41;23.80;99.90
6822;DHT22;3449;48.728;8.968;2022-08-19T12:48:09;23.90;99.90
6822;DHT22;3449;48.728;8.968;2022-08-19T12:50:39;24.00;99.90
6822;DHT22;3449;48.728;8.968;2022-08-19T12:53:06;24.10;99.90
6822;DHT22;3449;48.728;8.968;2022-08-19T12:55:33;24.40;99.90
6822;DHT22;3449;48.728;8.968;2022-08-19T12:58:00;24.50;99.90
6822;DHT22;3449;48.728;8.968;2022-08-19T13:00:28;24.40;99.90
6822;DHT22;3449;48.728;8.968;2022-08-19T13:02:58;24.20;99.90
6822;DHT22;3449;48.728;8.968;2022-08-19T13:05:27;24.10;99.90
6822;DHT22;3449;48.728;8.968;2022-08-19T13:07:57;24.00;99.90
6822;DHT22;3449;48.728;8.968;2022-08-19T13:10:27;24.00;99.90
6822;DHT22;3449;48.728;8.968;2022-08-19T13:12:55;24.00;99.90
6822;DHT22;3449;48.728;8.968;2022-08-19T13:15:23;24.00;99.90
6822;DHT22;3449;48.728;8.968;2022-08-19T13:17:54;24.00;99.90
6822;DHT22;3449;48.728;8.968;2022-08-19T13:20:22;24.10;99.90
6822;DHT22;3449;48.728;8.968;2022-08-19T13:22:49;24.20;99.90
6822;DHT22;3449;48.728;8.968;2022-08-19T13:25:18;24.20;99.90
6822;DHT22;3449;48.728;8.968;2022-08-19T13:27:47;24.40;99.90
6822;DHT22;3449;48.728;8.968;2022-08-19T13:30:16;24.40;99.90
6822;DHT22;3449;48.728;8.968;2022-08-19T13:33:00;24.40;99.90
6822;DHT22;3449;48.728;8.968;2022-08-19T13:35:45;24.40;99.90
6822;DHT22;3449;48.728;8.968;2022-08-19T13:38:13;24.20;99.90
6822;DHT22;3449;48.728;8.968;2022-08-19T13:40:43;24.10;99.90
6822;DHT22;3449;48.728;8.968;2022-08-19T13:43:10;24.00;99.90
6822;DHT22;3449;48.728;8.968;2022-08-19T13:45:37;24.00;99.90
6822;DHT22;3449;48.728;8.968;2022-08-19T13:48:05;24.00;99.90
6822;DHT22;3449;48.728;8.968;2022-08-19T13:50:37;24.00;99.90
6822;DHT22;3449;48.728;8.968;2022-08-19T13:53:06;24.00;99.90
6822;DHT22;3449;48.728;8.968;2022-08-19T13:55:34;24.00;99.90
6822;DHT22;3449;48.728;8.968;2022-08-19T13:58:03;23.90;99.90
6822;DHT22;3449;48.728;8.968;2022-08-19T14:00:33;23.80;99.90
6822;DHT22;3449;48.728;8.968;2022-08-19T14:03:01;23.70;99.90
6822;DHT22;3449;48.728;8.968;2022-08-19T14:05:29;23.80;99.90
6822;DHT22;3449;48.728;8.968;2022-08-19T14:07:57;23.90;99.90
6822;DHT22;3449;48.728;8.968;2022-08-19T14:10:25;23.90;99.90
6822;DHT22;3449;48.728;8.968;2022-08-19T14:12:53;23.90;99.90
6822;DHT22;3449;48.728;8.968;2022-08-19T14:15:22;23.90;99.90
6822;DHT22;3449;48.728;8.968;2022-08-19T14:17:50;23.80;99.90
6822;DHT22;3449;48.728;8.968;2022-08-19T14:20:17;23.70;99.90
6822;DHT22;3449;48.728;8.968;2022-08-19T14:22:45;23.70;99.90
6822;DHT22;3449;48.728;8.968;2022-08-19T14:25:15;23.60;99.90
6822;DHT22;3449;48.728;8.968;2022-08-19T14:27:43;23.50;99.90
6822;DHT22;3449;48.728;8.968;2022-08-19T14:30:12;23.50;99.90
6822;DHT22;3449;48.728;8.968;2022-08-19T14:32:41;23.40;99.90
6822;DHT22;3449;48.728;8.968;2022-08-19T14:35:10;23.40;99.90
6822;DHT22;3449;48.728;8.968;2022-08-19T14:37:38;23.40;99.90
6822;DHT22;3449;48.728;8.968;2022-08-19T14:40:07;23.50;99.90
6822;DHT22;3449;48.728;8.968;2022-08-19T14:42:34;23.60;99.90
6822;DHT22;3449;48.728;8.968;2022-08-19T14:45:01;23.60;99.90
6822;DHT22;3449;48.728;8.968;2022-08-19T14:47:30;23.70;99.90
6822;DHT22;3449;48.728;8.968;2022-08-19T14:49:58;23.70;99.90
6822;DHT22;3449;48.728;8.968;2022-08-19T14:52:25;23.80;99.90
6822;DHT22;3449;48.728;8.968;2022-08-19T14:54:52;23.90;99.90
6822;DHT22;3449;48.728;8.968;2022-08-19T14:57:19;23.90;99.90
6822;DHT22;3449;48.728;8.968;2022-08-19T14:59:46;24.00;99.90
6822;DHT22;3449;48.728;8.968;2022-08-19T15:02:13;24.10;99.90
6822;DHT22;3449;48.728;8.968;2022-08-19T15:04:40;24.10;99.90
6822;DHT22;3449;48.728;8.968;2022-08-19T15:07:09;24.10;99.90
6822;DHT22;3449;48.728;8.968;2022-08-19T15:09:36;24.10;99.90
6822;DHT22;3449;48.728;8.968;2022-08-19T15:12:03;24.20;99.90
6822;DHT22;3449;48.728;8.968;2022-08-19T15:14:31;24.40;99.90
6822;DHT22;3449;48.728;8.968;2022-08-19T15:17:01;24.50;99.90
6822;DHT22;3449;48.728;8.968;2022-08-19T15:19:28;24.70;99.90
6822;DHT22;3449;48.728;8.968;2022-08-19T15:21:55;25.00;99.90
6822;DHT22;3449;48.728;8.968;2022-08-19T15:24:24;25.20;99.90
6822;DHT22;3449;48.728;8.968;2022-08-19T15:26:52;25.50;99.90
6822;DHT22;3449;48.728;8.968;2022-08-19T15:29:19;25.80;99.90
6822;DHT22;3449;48.728;8.968;2022-08-19T15:31:47;26.30;99.90
6822;DHT22;3449;48.728;8.968;2022-08-19T15:34:16;26.80;99.90
6822;DHT22;3449;48.728;8.968;2022-08-19T15:36:43;27.20;99.90
6822;DHT22;3449;48.728;8.968;2022-08-19T15:39:10;27.30;99.90
6822;DHT22;3449;48.728;8.968;2022-08-19T15:41:38;27.50;99.90
6822;DHT22;3449;48.728;8.968;2022-08-19T15:44:07;27.60;99.90
6822;DHT22;3449;48.728;8.968;2022-08-19T15:46:36;27.60;99.90
6822;DHT22;3449;48.728;8.968;2022-08-19T15:49:04;27.30;99.90
6822;DHT22;3449;48.728;8.968;2022-08-19T15:51:33;27.10;99.90
6822;DHT22;3449;48.728;8.968;2022-08-19T15:54:01;27.10;99.90
6822;DHT22;3449;48.728;8.968;2022-08-19T15:56:28;27.10;99.90
6822;DHT22;3449;48.728;8.968;2022-08-19T15:59:10;26.80;99.90
6822;DHT22;3449;48.728;8.968;2022-08-19T16:01:55;26.70;99.90
6822;DHT22;3449;48.728;8.968;2022-08-19T16:04:39;26.50;99.90
6822;DHT22;3449;48.728;8.968;2022-08-19T16:07:23;26.20;99.90
6822;DHT22;3449;48.728;8.968;2022-08-19T16:09:50;26.00;99.90
6822;DHT22;3449;48.728;8.968;2022-08-19T16:12:17;25.70;99.90
6822;DHT22;3449;48.728;8.968;2022-08-19T16:14:45;25.50;99.90